Time;durP1;ratioP1;P1;durP2;ratioP2;P2;SDS_P1;SDS_P2;PMS_P1;PMS_P2;Temp;Humidity;BMP_temperature;BMP_pressure;BME280_temperature;BME280_humidity;BME280_pressure;Samples;Min_cycle;Max_cycle;Signal;HPM_P1;HPM_P2
2022/07/02 00:00:49;;;;;;;2.05;1.50;;;14.80;99.90;;;;;;5031768;28;20186;-63
2022/07/02 00:03:18;;;;;;;3.50;1.30;;;14.80;99.90;;;;;;5032040;28;20549;-65
2022/07/02 00:05:54;;;;;;;1.52;1.30;;;14.70;99.90;;;;;;5031487;28;20253;-65
2022/07/02 00:08:23;;;;;;;1.98;1.58;;;14.70;99.90;;;;;;5032240;28;20177;-65
2022/07/02 00:10:51;;;;;;;2.70;1.40;;;14.70;99.90;;;;;;5031119;28;20182;-65
2022/07/02 00:13:17;;;;;;;2.30;1.40;;;14.60;99.90;;;;;;5032271;28;20260;-65
2022/07/02 00:15:44;;;;;;;3.10;1.48;;;14.60;99.90;;;;;;5031562;28;20719;-65
2022/07/02 00:18:10;;;;;;;1.80;1.50;;;14.60;99.90;;;;;;5032377;28;20272;-65
2022/07/02 00:20:41;;;;;;;4.22;1.35;;;14.50;99.90;;;;;;5031262;28;20209;-65
2022/07/02 00:23:07;;;;;;;1.55;1.40;;;14.50;99.90;;;;;;5013814;28;20192;-65
2022/07/02 00:25:41;;;;;;;1.33;1.23;;;14.60;99.90;;;;;;5013042;28;20222;-65
2022/07/02 00:28:14;;;;;;;1.50;1.40;;;14.60;99.90;;;;;;5031730;28;20169;-65
2022/07/02 00:30:44;;;;;;;2.20;1.48;;;14.60;99.90;;;;;;5031596;28;20200;-65
2022/07/02 00:33:12;;;;;;;1.67;1.50;;;14.60;99.90;;;;;;5031308;28;20544;-64
2022/07/02 00:35:39;;;;;;;2.15;1.60;;;14.60;99.90;;;;;;5031121;28;20214;-65
2022/07/02 00:38:05;;;;;;;1.40;1.30;;;14.60;99.90;;;;;;5031253;28;20641;-65
2022/07/02 00:40:31;;;;;;;2.67;1.48;;;14.60;99.90;;;;;;5013600;28;20277;-64
2022/07/02 00:42:58;;;;;;;1.60;1.50;;;14.60;99.90;;;;;;5013536;28;20269;-65
2022/07/02 00:45:26;;;;;;;1.73;1.50;;;14.50;99.90;;;;;;5030408;28;20212;-65
2022/07/02 00:47:54;;;;;;;2.22;1.70;;;14.50;99.90;;;;;;5031548;28;20642;-65
2022/07/02 00:50:21;;;;;;;4.30;1.80;;;14.50;99.90;;;;;;5030858;28;20197;-65
2022/07/02 00:52:46;;;;;;;1.60;1.50;;;14.50;99.90;;;;;;5031182;28;20174;-65
2022/07/02 00:55:13;;;;;;;2.15;1.55;;;14.50;99.90;;;;;;5031105;28;20630;-65
2022/07/02 00:57:39;;;;;;;1.55;1.45;;;14.40;99.90;;;;;;5030909;28;20696;-65
2022/07/02 01:00:06;;;;;;;2.45;1.48;;;14.40;99.90;;;;;;5031074;28;20182;-65
2022/07/02 01:02:32;;;;;;;1.42;1.33;;;14.40;99.90;;;;;;5030703;28;20178;-65
2022/07/02 01:05:00;;;;;;;2.05;1.55;;;14.40;99.90;;;;;;5030321;28;20210;-65
2022/07/02 01:07:28;;;;;;;3.70;1.50;;;14.30;99.90;;;;;;5031210;28;20178;-65
2022/07/02 01:12:42;;;;;;;3.05;1.30;;;14.30;99.90;;;;;;5030673;28;20546;-65
2022/07/02 01:15:08;;;;;;;1.73;1.40;;;14.30;99.90;;;;;;5027424;28;20174;-65
2022/07/02 01:17:33;;;;;;;2.38;1.30;;;14.30;99.90;;;;;;5031028;28;20244;-65
2022/07/02 01:20:01;;;;;;;1.50;1.40;;;14.20;99.90;;;;;;5031040;28;20174;-65
2022/07/02 01:22:38;;;;;;;2.65;1.55;;;14.20;99.90;;;;;;5030883;28;20216;-65
2022/07/02 01:25:05;;;;;;;3.00;1.48;;;14.10;99.90;;;;;;5012193;28;20224;-65
2022/07/02 01:27:30;;;;;;;1.60;1.50;;;14.00;99.90;;;;;;5030112;28;20660;-65
2022/07/02 01:29:56;;;;;;;3.42;1.45;;;14.00;99.90;;;;;;5030191;28;20193;-65
2022/07/02 01:32:22;;;;;;;1.70;1.60;;;14.00;99.90;;;;;;5031514;28;20170;-65
2022/07/02 01:34:50;;;;;;;4.07;1.50;;;14.00;99.90;;;;;;5030186;28;20604;-65
2022/07/02 01:37:19;;;;;;;3.58;1.60;;;13.90;99.90;;;;;;5030515;28;20186;-65
2022/07/02 01:39:45;;;;;;;5.72;1.58;;;13.90;99.90;;;;;;5026160;28;20240;-65
2022/07/02 01:42:12;;;;;;;2.88;1.67;;;13.90;99.90;;;;;;5034538;28;20193;-65
2022/07/02 01:44:38;;;;;;;2.75;1.60;;;13.90;99.90;;;;;;5033878;28;20206;-65
2022/07/02 01:47:09;;;;;;;5.40;1.70;;;13.90;99.90;;;;;;5034315;28;20554;-65
2022/07/02 01:49:35;;;;;;;5.63;1.88;;;13.90;99.90;;;;;;5034603;28;20660;-65
2022/07/02 01:52:02;;;;;;;4.65;1.85;;;13.90;99.90;;;;;;5034237;28;20214;-65
2022/07/02 01:54:28;;;;;;;1.92;1.77;;;13.90;99.90;;;;;;5033912;28;20611;-65
2022/07/02 01:56:54;;;;;;;1.65;1.55;;;13.80;99.90;;;;;;5034356;28;20269;-65
2022/07/02 01:59:19;;;;;;;1.88;1.70;;;13.90;99.90;;;;;;5033933;28;20182;-66
2022/07/02 02:01:46;;;;;;;2.55;1.73;;;13.80;99.90;;;;;;5034015;28;20260;-65
2022/07/02 02:04:11;;;;;;;5.28;1.70;;;13.80;99.90;;;;;;5016273;28;20194;-65
2022/07/02 02:06:37;;;;;;;2.88;1.52;;;13.80;99.90;;;;;;5016230;28;20190;-65
2022/07/02 02:09:03;;;;;;;4.55;1.73;;;13.80;99.90;;;;;;5015540;28;20232;-65
2022/07/02 02:11:29;;;;;;;4.13;1.52;;;13.70;99.90;;;;;;5033964;28;20186;-65
2022/07/02 02:13:58;;;;;;;2.20;1.67;;;13.70;99.90;;;;;;5033730;28;20186;-65
2022/07/02 02:16:27;;;;;;;2.63;1.48;;;13.70;99.90;;;;;;5033446;28;20261;-65
2022/07/02 02:18:54;;;;;;;2.95;1.80;;;13.70;99.90;;;;;;5033754;28;20219;-65
2022/07/02 02:21:21;;;;;;;1.90;1.80;;;13.70;99.90;;;;;;5033467;28;20182;-66
2022/07/02 02:23:46;;;;;;;3.35;1.77;;;13.70;99.90;;;;;;5032998;28;20243;-66
2022/07/02 02:26:12;;;;;;;1.85;1.75;;;13.60;99.90;;;;;;5033490;28;20209;-65
2022/07/02 02:28:38;;;;;;;2.60;2.20;;;13.60;99.90;;;;;;5014974;28;20185;-65
2022/07/02 02:31:04;;;;;;;3.20;2.00;;;13.50;99.90;;;;;;5033532;28;20182;-65
2022/07/02 02:33:29;;;;;;;2.88;2.10;;;13.50;99.90;;;;;;5033758;28;20181;-65
2022/07/02 02:35:55;;;;;;;3.90;2.00;;;13.50;99.90;;;;;;5032901;28;20179;-65
2022/07/02 02:38:20;;;;;;;3.20;1.90;;;13.50;99.90;;;;;;5025901;28;20214;-65
2022/07/02 02:40:46;;;;;;;1.95;1.77;;;13.50;99.90;;;;;;5033311;28;20236;-65
2022/07/02 02:43:12;;;;;;;2.60;1.73;;;13.50;99.90;;;;;;5033599;28;20178;-65
2022/07/02 02:45:37;;;;;;;2.55;1.60;;;13.50;99.90;;;;;;5032765;28;20283;-65
2022/07/02 02:48:03;;;;;;;3.05;1.63;;;13.40;99.90;;;;;;5027416;28;20186;-65
2022/07/02 02:50:29;;;;;;;1.63;1.52;;;13.40;99.90;;;;;;5032402;28;20265;-65
2022/07/02 02:52:54;;;;;;;3.30;1.50;;;13.40;99.90;;;;;;5033253;28;20186;-66
2022/07/02 02:55:20;;;;;;;2.25;1.50;;;13.40;99.90;;;;;;5033002;28;20198;-65
2022/07/02 02:57:45;;;;;;;1.70;1.60;;;13.40;99.90;;;;;;5032774;28;20182;-65
2022/07/02 03:00:11;;;;;;;2.58;1.63;;;13.30;99.90;;;;;;5032915;28;20201;-65
2022/07/02 03:02:37;;;;;;;2.63;1.60;;;13.30;99.90;;;;;;5032457;28;20692;-65
2022/07/02 03:05:02;;;;;;;3.42;1.35;;;13.30;99.90;;;;;;5032880;28;20218;-65
2022/07/02 03:07:28;;;;;;;3.00;1.60;;;13.30;99.90;;;;;;5032465;28;20216;-65
2022/07/02 03:09:53;;;;;;;2.13;1.92;;;13.30;99.90;;;;;;5032670;28;20193;-65
2022/07/02 03:12:19;;;;;;;4.05;1.95;;;13.20;99.90;;;;;;5032612;28;20754;-65
2022/07/02 03:14:44;;;;;;;2.67;2.20;;;13.20;99.90;;;;;;5032658;28;20181;-65
2022/07/02 03:17:10;;;;;;;3.10;2.13;;;13.20;99.90;;;;;;5032558;28;20188;-64
2022/07/02 03:19:35;;;;;;;1.85;1.75;;;13.20;99.90;;;;;;5015762;28;20739;-65
2022/07/02 03:22:01;;;;;;;5.18;1.80;;;13.20;99.90;;;;;;5032507;28;20178;-65
2022/07/02 03:24:26;;;;;;;2.15;1.73;;;13.20;99.90;;;;;;5033290;28;20210;-65
2022/07/02 03:26:52;;;;;;;1.90;1.50;;;13.20;99.90;;;;;;5034034;28;20197;-65
2022/07/02 03:29:17;;;;;;;3.30;1.73;;;13.20;99.90;;;;;;5032968;28;20170;-65
2022/07/02 03:31:43;;;;;;;4.38;1.98;;;13.20;99.90;;;;;;5032225;28;20190;-65
2022/07/02 03:34:08;;;;;;;3.13;2.10;;;13.20;99.90;;;;;;5032139;28;20178;-66
2022/07/02 03:36:34;;;;;;;3.05;2.17;;;13.20;99.90;;;;;;5032327;28;20194;-65
2022/07/02 03:38:59;;;;;;;3.58;1.95;;;13.20;99.90;;;;;;5031384;28;20246;-66
2022/07/02 03:41:25;;;;;;;2.72;1.98;;;13.20;99.90;;;;;;5031640;28;20194;-66
2022/07/02 03:43:51;;;;;;;2.72;1.90;;;13.20;99.90;;;;;;5031556;28;20178;-66
2022/07/02 03:46:17;;;;;;;4.35;2.05;;;13.20;99.90;;;;;;5031953;28;20214;-65
2022/07/02 03:48:43;;;;;;;4.05;2.08;;;13.20;99.90;;;;;;5032210;28;20232;-66
2022/07/02 03:51:09;;;;;;;2.75;2.20;;;13.20;99.90;;;;;;5028055;28;20187;-65
2022/07/02 03:53:34;;;;;;;2.88;2.00;;;13.20;99.90;;;;;;5031394;28;20177;-65
2022/07/02 03:56:01;;;;;;;9.50;2.30;;;13.20;99.90;;;;;;5032221;28;20193;-65
2022/07/02 03:58:27;;;;;;;5.90;1.95;;;13.20;99.90;;;;;;5030937;28;20607;-65
2022/07/02 04:00:53;;;;;;;3.15;2.20;;;13.20;99.90;;;;;;5031136;28;20201;-65
2022/07/02 04:03:18;;;;;;;3.63;1.90;;;13.20;99.90;;;;;;5031179;28;20185;-66
2022/07/02 04:05:44;;;;;;;3.25;2.35;;;13.30;99.90;;;;;;5031567;28;20249;-65
2022/07/02 04:08:09;;;;;;;2.60;2.00;;;13.30;99.90;;;;;;5032204;28;20547;-65
2022/07/02 04:10:34;;;;;;;6.07;2.47;;;13.30;99.90;;;;;;5031851;28;20220;-65
2022/07/02 04:13:01;;;;;;;4.07;1.98;;;13.40;99.90;;;;;;5013989;28;20261;-65
2022/07/02 04:15:27;;;;;;;5.88;2.25;;;13.50;99.90;;;;;;5029481;28;20190;-65
2022/07/02 04:17:52;;;;;;;2.65;2.13;;;13.50;99.90;;;;;;5032393;28;20201;-65
2022/07/02 04:20:18;;;;;;;2.30;2.10;;;13.60;99.90;;;;;;5031880;28;20181;-65
2022/07/02 04:22:43;;;;;;;6.00;2.42;;;13.70;99.90;;;;;;5038438;28;20625;-65
2022/07/02 04:25:09;;;;;;;4.45;2.13;;;14.00;99.90;;;;;;5007145;28;20215;-65
2022/07/02 04:27:35;;;;;;;2.75;2.03;;;14.40;99.90;;;;;;5012569;28;20190;-66
2022/07/02 04:30:00;;;;;;;5.50;2.00;;;14.80;99.90;;;;;;5013789;28;20652;-65
2022/07/02 04:32:26;;;;;;;5.05;2.30;;;15.30;99.90;;;;;;5032030;28;20530;-65
2022/07/02 04:34:51;;;;;;;2.97;1.95;;;15.80;99.90;;;;;;5031200;28;20178;-65
2022/07/02 04:37:17;;;;;;;4.43;2.13;;;16.20;99.90;;;;;;5014061;28;20182;-65
2022/07/02 04:39:42;;;;;;;5.63;1.80;;;16.80;99.90;;;;;;5031387;28;20261;-65
2022/07/02 04:42:08;;;;;;;3.00;1.80;;;17.30;99.90;;;;;;5013517;28;20210;-65
2022/07/02 04:44:34;;;;;;;5.28;2.10;;;17.80;99.90;;;;;;5031015;28;20213;-65
2022/07/02 04:46:59;;;;;;;2.65;1.70;;;18.30;99.90;;;;;;5031426;28;20182;-65
2022/07/02 04:49:25;;;;;;;3.40;1.88;;;18.70;99.90;;;;;;5031127;28;20183;-65
2022/07/02 04:51:51;;;;;;;5.95;1.80;;;19.00;99.90;;;;;;5030227;28;20258;-65
2022/07/02 04:54:16;;;;;;;5.80;1.90;;;19.50;99.90;;;;;;5013620;28;20178;-65
2022/07/02 04:56:42;;;;;;;4.40;2.15;;;20.00;99.90;;;;;;5013615;28;20233;-65
2022/07/02 04:59:07;;;;;;;3.85;2.10;;;20.50;99.90;;;;;;5031247;28;20208;-66
2022/07/02 05:01:33;;;;;;;4.32;2.00;;;20.90;99.90;;;;;;5030728;28;20200;-65
2022/07/02 05:03:58;;;;;;;3.78;1.63;;;21.20;99.90;;;;;;5031179;28;20193;-66
2022/07/02 05:06:24;;;;;;;3.88;2.00;;;21.40;99.90;;;;;;5031669;28;20601;-65
2022/07/02 05:08:51;;;;;;;4.32;1.70;;;21.70;99.90;;;;;;5031141;28;20175;-66
2022/07/02 05:11:19;;;;;;;2.95;1.33;;;22.00;99.90;;;;;;5031273;28;20545;-66
2022/07/02 05:13:45;;;;;;;3.70;1.88;;;22.40;99.50;;;;;;5030882;28;20541;-66
2022/07/02 05:16:11;;;;;;;1.95;1.45;;;22.70;99.10;;;;;;5029948;28;20206;-65
2022/07/02 05:18:36;;;;;;;4.90;1.67;;;23.00;98.60;;;;;;5028028;28;20722;-66
2022/07/02 05:21:02;;;;;;;5.85;1.40;;;23.10;98.00;;;;;;5043152;28;20184;-65
2022/07/02 05:23:27;;;;;;;7.82;1.50;;;23.20;97.70;;;;;;5031916;28;20544;-66
2022/07/02 05:25:53;;;;;;;5.03;1.60;;;23.50;97.50;;;;;;5031914;28;20220;-66
2022/07/02 05:28:18;;;;;;;4.05;1.52;;;23.80;96.80;;;;;;5045824;28;20245;-68
2022/07/02 05:30:44;;;;;;;4.32;1.80;;;24.10;96.20;;;;;;5046161;28;20432;-64
2022/07/02 05:33:09;;;;;;;3.45;1.33;;;24.50;95.90;;;;;;5014663;28;20178;-65
2022/07/02 05:35:35;;;;;;;6.25;1.98;;;24.90;95.00;;;;;;5032777;28;20170;-66
2022/07/02 05:38:00;;;;;;;8.10;1.70;;;25.30;94.00;;;;;;5032025;28;20182;-65
2022/07/02 05:40:26;;;;;;;2.05;1.30;;;25.70;93.20;;;;;;5019444;28;20252;-67
2022/07/02 05:42:51;;;;;;;4.63;1.33;;;26.10;92.60;;;;;;5012119;28;20587;-66
2022/07/02 05:45:17;;;;;;;3.95;1.30;;;26.50;91.50;;;;;;5025845;28;20621;-65
2022/07/02 05:47:43;;;;;;;3.53;1.40;;;26.90;90.90;;;;;;5006370;28;20624;-65
2022/07/02 05:50:09;;;;;;;1.95;1.40;;;27.30;89.80;;;;;;5052203;28;20220;-65
2022/07/02 05:52:35;;;;;;;2.80;1.50;;;27.50;87.80;;;;;;5036159;28;20177;-65
2022/07/02 05:55:00;;;;;;;4.47;1.35;;;27.70;87.50;;;;;;5031119;28;20186;-65
2022/07/02 05:57:26;;;;;;;4.75;1.45;;;28.00;85.50;;;;;;5026770;28;20592;-65
2022/07/02 05:59:51;;;;;;;1.98;1.30;;;28.30;84.30;;;;;;5014712;28;20225;-65
2022/07/02 06:02:17;;;;;;;2.97;1.80;;;28.70;82.40;;;;;;5029376;28;20201;-65
2022/07/02 06:04:42;;;;;;;3.13;2.22;;;29.00;81.00;;;;;;5031101;28;20209;-65
2022/07/02 06:09:52;;;;;;;3.75;1.30;;;29.50;78.80;;;;;;5029669;28;20224;-65
2022/07/02 06:12:18;;;;;;;0.70;0.70;;;29.90;75.40;;;;;;5013484;28;20202;-65
2022/07/02 06:14:43;;;;;;;1.92;0.60;;;30.10;73.20;;;;;;5030994;28;20265;-65
2022/07/02 06:17:10;;;;;;;0.60;0.60;;;30.30;70.00;;;;;;5032230;28;20185;-65
2022/07/02 06:19:36;;;;;;;0.70;0.70;;;30.50;70.00;;;;;;5036923;28;20664;-65
2022/07/02 06:22:01;;;;;;;1.85;0.90;;;30.50;68.80;;;;;;5032818;28;20198;-66
2022/07/02 06:24:27;;;;;;;0.55;0.55;;;30.70;68.20;;;;;;5032078;28;20209;-65
2022/07/02 06:26:52;;;;;;;1.30;0.77;;;31.00;66.70;;;;;;5034171;28;20201;-66
2022/07/02 06:29:18;;;;;;;2.05;1.05;;;31.30;66.00;;;;;;5034658;28;20170;-65
2022/07/02 06:31:43;;;;;;;0.80;0.80;;;31.50;64.40;;;;;;5034229;28;20189;-65
2022/07/02 06:34:08;;;;;;;1.02;1.02;;;31.70;63.80;;;;;;5026664;28;20201;-66
2022/07/02 06:36:34;;;;;;;1.48;0.90;;;31.90;62.30;;;;;;5047367;28;20205;-65
2022/07/02 06:39:00;;;;;;;0.98;0.82;;;32.00;60.50;;;;;;5035475;28;20292;-65
2022/07/02 06:44:09;;;;;;;0.70;0.70;;;32.20;60.70;;;;;;5016818;28;20533;-66
2022/07/02 06:46:35;;;;;;;1.05;0.90;;;32.50;58.20;;;;;;5034176;28;20185;-66
2022/07/02 06:49:01;;;;;;;1.13;0.68;;;32.60;58.10;;;;;;5034018;28;20177;-65
2022/07/02 06:51:27;;;;;;;0.60;0.60;;;32.80;57.70;;;;;;5029041;28;20189;-66
2022/07/02 06:53:55;;;;;;;0.63;0.63;;;33.00;57.30;;;;;;5036764;28;20205;-65
2022/07/02 06:56:21;;;;;;;0.60;0.60;;;33.00;57.30;;;;;;5037683;28;20237;-65
2022/07/02 06:58:46;;;;;;;3.55;0.85;;;33.30;56.90;;;;;;5039778;28;20189;-65
2022/07/02 07:01:12;;;;;;;0.73;0.70;;;33.70;56.70;;;;;;5029629;28;20192;-66
2022/07/02 07:03:37;;;;;;;0.60;0.60;;;34.10;54.90;;;;;;5031069;28;20265;-65
2022/07/02 07:06:03;;;;;;;1.08;0.77;;;34.40;52.50;;;;;;5033771;28;20220;-65
2022/07/02 07:08:29;;;;;;;0.77;0.60;;;34.40;52.00;;;;;;5033848;28;20579;-65
2022/07/02 07:10:54;;;;;;;2.40;0.68;;;34.50;51.90;;;;;;5033732;28;20201;-65
2022/07/02 07:13:20;;;;;;;1.17;0.60;;;34.50;52.50;;;;;;5033604;28;20182;-65
2022/07/02 07:15:45;;;;;;;0.73;0.73;;;34.70;52.50;;;;;;5033508;28;20182;-66
2022/07/02 07:18:11;;;;;;;0.60;0.60;;;34.70;51.70;;;;;;5033007;28;20193;-63
2022/07/02 07:20:36;;;;;;;0.93;0.80;;;34.70;51.30;;;;;;5015954;28;20261;-63
2022/07/02 07:23:02;;;;;;;1.10;0.55;;;34.90;50.90;;;;;;5033323;28;20552;-63
2022/07/02 07:25:28;;;;;;;0.80;0.68;;;35.20;50.90;;;;;;5033601;28;20735;-64
2022/07/02 07:27:54;;;;;;;2.55;0.70;;;35.60;49.90;;;;;;5033242;28;20185;-64
2022/07/02 07:30:19;;;;;;;0.85;0.60;;;35.60;49.60;;;;;;5033318;28;20186;-63
2022/07/02 07:32:45;;;;;;;2.47;0.60;;;35.70;49.40;;;;;;5033364;28;20205;-65
2022/07/02 07:35:11;;;;;;;1.05;0.60;;;36.00;48.60;;;;;;5036159;28;20271;-66
2022/07/02 07:37:36;;;;;;;1.25;0.50;;;36.10;48.10;;;;;;5031735;28;20269;-65
2022/07/02 07:40:03;;;;;;;1.40;0.70;;;35.90;46.80;;;;;;5032511;28;20244;-66
2022/07/02 07:42:29;;;;;;;2.50;0.55;;;35.00;46.80;;;;;;5032649;28;20600;-66
2022/07/02 07:44:55;;;;;;;0.65;0.65;;;34.30;47.80;;;;;;5032806;28;20251;-66
2022/07/02 07:47:20;;;;;;;0.60;0.60;;;33.90;48.40;;;;;;5030558;28;20190;-66
2022/07/02 07:49:46;;;;;;;1.35;0.40;;;33.90;49.00;;;;;;5020873;28;20663;-65
2022/07/02 07:52:11;;;;;;;0.40;0.40;;;34.20;50.20;;;;;;5033098;28;20181;-66
2022/07/02 07:54:37;;;;;;;0.45;0.45;;;34.20;47.60;;;;;;5032714;28;20684;-66
2022/07/02 07:57:04;;;;;;;0.98;0.90;;;34.10;47.70;;;;;;5032853;28;20272;-66
2022/07/02 07:59:29;;;;;;;0.68;0.68;;;34.10;49.20;;;;;;5030569;28;20276;-66
2022/07/02 08:01:55;;;;;;;0.65;0.65;;;34.30;49.30;;;;;;5032558;28;20260;-65
2022/07/02 08:04:20;;;;;;;0.57;0.45;;;34.30;47.00;;;;;;5032285;28;20280;-67
2022/07/02 08:06:46;;;;;;;0.32;0.32;;;34.50;47.10;;;;;;5032853;28;20540;-66
2022/07/02 08:09:11;;;;;;;2.05;0.45;;;34.40;45.20;;;;;;5031509;28;20177;-66
2022/07/02 08:11:37;;;;;;;0.82;0.50;;;34.20;46.70;;;;;;5023319;28;20177;-66
2022/07/02 08:14:02;;;;;;;1.90;0.40;;;34.30;47.00;;;;;;5036939;28;20256;-66
2022/07/02 08:16:28;;;;;;;0.57;0.47;;;34.10;45.50;;;;;;5037952;28;20177;-67
2022/07/02 08:18:53;;;;;;;2.53;0.70;;;33.90;45.90;;;;;;5032400;28;20186;-66
2022/07/02 08:21:19;;;;;;;1.08;0.60;;;33.60;45.70;;;;;;5031038;28;20947;-67
2022/07/02 08:23:45;;;;;;;1.80;0.50;;;33.50;47.20;;;;;;5031966;28;20181;-66
2022/07/02 08:26:10;;;;;;;2.85;0.80;;;33.30;45.90;;;;;;5032034;28;20307;-67
2022/07/02 08:28:36;;;;;;;0.82;0.50;;;32.60;46.80;;;;;;5025471;28;20189;-67
2022/07/02 08:31:01;;;;;;;1.13;0.60;;;32.40;47.60;;;;;;5032087;28;20185;-67
2022/07/02 08:33:27;;;;;;;0.45;0.45;;;32.20;47.60;;;;;;5032121;28;20315;-68
2022/07/02 08:35:53;;;;;;;1.60;0.70;;;32.30;48.20;;;;;;5031386;28;20196;-68
2022/07/02 08:38:18;;;;;;;1.27;0.43;;;32.50;48.60;;;;;;5031155;28;20210;-68
2022/07/02 08:40:44;;;;;;;0.52;0.52;;;32.60;47.20;;;;;;5032183;28;20263;-68
2022/07/02 08:43:15;;;;;;;2.38;0.60;;;32.60;46.70;;;;;;5031288;28;20174;-67
2022/07/02 08:45:42;;;;;;;0.20;0.20;;;32.20;45.70;;;;;;5031919;28;20249;-67
2022/07/02 08:48:09;;;;;;;0.60;0.60;;;31.70;45.60;;;;;;5031145;28;20540;-68
2022/07/02 08:50:35;;;;;;;3.72;0.70;;;31.50;46.50;;;;;;5031595;28;20228;-68
2022/07/02 08:53:04;;;;;;;0.45;0.45;;;31.10;46.70;;;;;;5031979;28;20182;-68
2022/07/02 08:55:32;;;;;;;0.40;0.40;;;31.10;46.90;;;;;;5031319;28;20205;-67
2022/07/02 08:57:58;;;;;;;0.57;0.43;;;31.20;47.40;;;;;;5009814;28;20178;-68
2022/07/02 09:00:25;;;;;;;0.40;0.40;;;31.10;45.00;;;;;;5031615;28;20190;-68
2022/07/02 09:02:53;;;;;;;0.88;0.60;;;30.70;45.20;;;;;;5013653;28;20256;-67
2022/07/02 09:05:21;;;;;;;0.68;0.30;;;30.60;45.40;;;;;;5024848;28;20198;-68
2022/07/02 09:07:47;;;;;;;0.80;0.45;;;30.50;45.20;;;;;;5037061;28;20182;-67
2022/07/02 09:10:17;;;;;;;0.47;0.25;;;30.40;45.30;;;;;;5031575;28;20178;-67
2022/07/02 09:12:43;;;;;;;0.85;0.55;;;30.20;46.10;;;;;;5031606;28;20243;-67
2022/07/02 09:15:10;;;;;;;0.85;0.50;;;30.20;46.80;;;;;;5013432;28;20529;-67
2022/07/02 09:17:37;;;;;;;2.90;0.60;;;30.30;46.90;;;;;;5031352;28;20232;-67
2022/07/02 09:20:04;;;;;;;1.38;0.50;;;30.60;45.70;;;;;;5031853;28;20181;-67
2022/07/02 09:22:32;;;;;;;0.52;0.30;;;30.70;47.00;;;;;;5034491;28;20186;-67
2022/07/02 09:25:16;;;;;;;0.60;0.60;;;30.90;48.00;;;;;;5031114;28;20214;-67
2022/07/02 09:27:43;;;;;;;2.47;0.50;;;31.30;48.30;;;;;;5031173;28;20583;-67
2022/07/02 09:30:11;;;;;;;0.40;0.40;;;31.50;45.80;;;;;;5030634;28;20182;-67
2022/07/02 09:32:39;;;;;;;1.17;0.60;;;31.50;47.50;;;;;;5027251;28;20297;-67
2022/07/02 09:35:05;;;;;;;0.30;0.30;;;31.40;45.20;;;;;;5031241;28;20637;-66
2022/07/02 09:37:31;;;;;;;0.50;0.40;;;31.20;44.80;;;;;;5031132;28;20194;-67
2022/07/02 09:40:00;;;;;;;0.50;0.50;;;31.00;46.40;;;;;;5031194;28;20676;-67
2022/07/02 09:42:32;;;;;;;0.50;0.50;;;30.70;46.00;;;;;;5031268;28;20186;-67
2022/07/02 09:44:59;;;;;;;0.82;0.50;;;30.40;46.40;;;;;;5013229;28;20217;-67
2022/07/02 09:47:40;;;;;;;0.40;0.40;;;30.40;47.40;;;;;;5031203;28;20677;-67
2022/07/02 09:50:09;;;;;;;1.27;0.55;;;30.30;47.30;;;;;;5031128;28;20220;-67
2022/07/02 09:52:35;;;;;;;0.85;0.60;;;30.00;45.90;;;;;;5030986;28;20180;-67
2022/07/02 09:55:02;;;;;;;1.48;0.50;;;29.80;45.70;;;;;;5030783;28;20186;-66
2022/07/02 09:57:28;;;;;;;0.35;0.35;;;29.70;45.90;;;;;;5030624;28;20192;-66
2022/07/02 10:00:03;;;;;;;0.45;0.40;;;29.70;47.50;;;;;;5031391;28;20722;-67
2022/07/02 10:02:29;;;;;;;1.58;0.57;;;29.90;47.10;;;;;;5032163;28;20714;-67
2022/07/02 10:04:56;;;;;;;2.20;0.50;;;30.30;47.00;;;;;;5030794;28;20210;-67
2022/07/02 10:07:23;;;;;;;0.82;0.82;;;30.50;45.80;;;;;;5034449;28;20200;-67
2022/07/02 10:09:51;;;;;;;1.20;0.70;;;30.70;45.30;;;;;;5034581;28;20597;-67
2022/07/02 10:12:17;;;;;;;0.40;0.40;;;30.70;46.90;;;;;;5034299;28;20189;-67
2022/07/02 10:14:45;;;;;;;0.95;0.45;;;30.60;45.50;;;;;;5016614;28;20194;-66
2022/07/02 10:17:10;;;;;;;0.73;0.45;;;30.80;45.50;;;;;;5033966;28;20189;-67
2022/07/02 10:19:38;;;;;;;1.25;0.60;;;31.00;46.00;;;;;;5031385;28;20186;-67
2022/07/02 10:22:05;;;;;;;0.57;0.40;;;31.30;46.00;;;;;;5052404;28;20190;-67
2022/07/02 10:24:31;;;;;;;0.45;0.43;;;31.60;45.90;;;;;;5025534;28;20209;-67
2022/07/02 10:27:01;;;;;;;1.10;0.40;;;31.80;46.40;;;;;;5028762;28;20186;-67
2022/07/02 10:29:28;;;;;;;0.68;0.60;;;31.60;45.50;;;;;;5016792;28;20198;-67
2022/07/02 10:32:12;;;;;;;1.55;0.50;;;31.70;47.00;;;;;;5034442;28;20279;-67
2022/07/02 10:34:46;;;;;;;0.70;0.65;;;31.80;47.00;;;;;;5029334;28;20179;-68
2022/07/02 10:37:12;;;;;;;0.90;0.68;;;32.10;46.60;;;;;;5029293;28;20185;-66
2022/07/02 10:39:41;;;;;;;0.63;0.63;;;31.90;44.70;;;;;;5031804;28;20283;-66
2022/07/02 10:42:07;;;;;;;0.50;0.50;;;31.70;44.90;;;;;;5034393;28;20184;-67
2022/07/02 10:44:42;;;;;;;0.68;0.60;;;31.60;45.30;;;;;;5033916;28;20289;-66
2022/07/02 10:47:28;;;;;;;0.70;0.50;;;31.50;46.50;;;;;;5033979;28;20628;-66
2022/07/02 10:49:58;;;;;;;1.17;0.60;;;31.50;47.20;;;;;;5025799;28;20586;-67
2022/07/02 10:52:50;;;;;;;2.05;0.63;;;31.70;47.30;;;;;;5034203;28;20171;-67
2022/07/02 10:55:29;;;;;;;0.85;0.60;;;31.50;44.80;;;;;;5033585;28;20178;-67
2022/07/02 10:57:56;;;;;;;0.50;0.25;;;31.50;44.60;;;;;;5031575;28;20264;-67
2022/07/02 11:00:39;;;;;;;0.40;0.40;;;31.70;43.90;;;;;;5033595;28;20519;-67
2022/07/02 11:03:14;;;;;;;0.30;0.30;;;31.40;44.60;;;;;;5033847;28;20178;-66
2022/07/02 11:06:19;;;;;;;0.55;0.43;;;31.20;45.00;;;;;;5032966;28;20221;-67
2022/07/02 11:08:47;;;;;;;1.13;0.88;;;31.40;46.00;;;;;;5016048;28;20182;-67
2022/07/02 11:11:22;;;;;;;1.02;0.50;;;31.60;45.80;;;;;;5027379;28;20193;-67
2022/07/02 11:13:49;;;;;;;2.25;0.60;;;31.70;45.70;;;;;;5014924;28;20189;-66
2022/07/02 11:16:25;;;;;;;0.43;0.40;;;31.90;44.80;;;;;;5028638;28;20186;-66
2022/07/02 11:18:53;;;;;;;0.77;0.50;;;31.90;44.10;;;;;;5032236;28;20244;-66
2022/07/02 11:21:21;;;;;;;1.00;0.47;;;32.00;44.00;;;;;;5032345;28;20293;-67
2022/07/02 11:23:48;;;;;;;0.43;0.43;;;32.00;45.50;;;;;;5033754;28;20182;-66
2022/07/02 11:26:19;;;;;;;1.77;0.50;;;31.80;43.90;;;;;;5032917;28;20279;-67
2022/07/02 11:28:45;;;;;;;0.50;0.50;;;31.80;45.40;;;;;;5031192;28;20193;-67
2022/07/02 11:31:11;;;;;;;0.82;0.57;;;31.90;46.20;;;;;;5032971;28;20244;-67
2022/07/02 11:33:43;;;;;;;0.40;0.38;;;32.00;44.30;;;;;;5029100;28;20178;-67
2022/07/02 11:36:09;;;;;;;1.45;0.52;;;32.10;44.70;;;;;;5032735;28;20190;-67
2022/07/02 11:38:39;;;;;;;0.60;0.60;;;32.00;44.10;;;;;;5032567;28;20643;-66
2022/07/02 11:41:22;;;;;;;0.68;0.60;;;31.90;43.40;;;;;;5032840;28;20181;-66
2022/07/02 11:43:54;;;;;;;1.23;0.52;;;31.50;43.50;;;;;;5032358;28;20252;-64
2022/07/02 11:46:23;;;;;;;0.50;0.50;;;31.40;44.80;;;;;;5032591;28;20244;-66
2022/07/02 11:48:49;;;;;;;0.30;0.30;;;31.40;46.30;;;;;;5032812;28;20653;-65
2022/07/02 11:51:16;;;;;;;1.00;0.65;;;31.40;45.60;;;;;;5032303;28;20186;-65
2022/07/02 11:53:42;;;;;;;0.52;0.43;;;31.60;46.10;;;;;;5032959;28;20739;-67
2022/07/02 11:56:10;;;;;;;1.55;0.68;;;31.50;43.90;;;;;;5032097;28;20186;-64
2022/07/02 11:58:43;;;;;;;0.63;0.60;;;31.60;45.90;;;;;;5032596;28;20691;-65
2022/07/02 12:01:18;;;;;;;0.85;0.63;;;31.80;45.40;;;;;;5032407;28;20232;-66
2022/07/02 12:03:45;;;;;;;1.65;0.40;;;32.00;44.00;;;;;;5032678;28;20216;-63
2022/07/02 12:06:11;;;;;;;1.17;0.80;;;32.00;43.90;;;;;;5014211;28;20210;-66
2022/07/02 12:08:37;;;;;;;0.40;0.40;;;32.20;44.30;;;;;;5032185;28;20178;-64
2022/07/02 12:11:17;;;;;;;0.75;0.60;;;31.90;42.80;;;;;;5030887;28;20182;-65
2022/07/02 12:13:44;;;;;;;1.15;0.47;;;31.70;42.90;;;;;;5032138;28;20186;-63
2022/07/02 12:16:12;;;;;;;0.47;0.47;;;31.50;43.10;;;;;;5010689;28;20192;-66
2022/07/02 12:18:37;;;;;;;1.75;0.35;;;31.30;42.70;;;;;;5032264;28;20182;-66
2022/07/02 12:21:15;;;;;;;0.50;0.47;;;31.10;43.90;;;;;;5031950;28;20664;-66
2022/07/02 12:23:46;;;;;;;1.50;0.50;;;31.10;43.40;;;;;;5028627;28;20186;-66
2022/07/02 12:26:23;;;;;;;0.47;0.47;;;31.10;43.80;;;;;;5031524;28;20209;-66
2022/07/02 12:31:49;;;;;;;1.27;1.17;;;31.20;45.00;;;;;;5012862;28;20197;-67
2022/07/02 12:34:15;;;;;;;4.78;3.58;;;31.30;46.00;;;;;;5026651;28;20585;-67
2022/07/02 12:36:57;;;;;;;0.95;0.80;;;31.50;44.30;;;;;;5031335;28;20182;-67
2022/07/02 12:39:40;;;;;;;0.85;0.63;;;31.20;44.10;;;;;;5031370;28;20662;-67
2022/07/02 12:42:17;;;;;;;2.97;2.38;;;31.00;45.00;;;;;;5031830;28;20655;-67
2022/07/02 12:45:03;;;;;;;1.40;0.90;;;31.10;45.50;;;;;;5031089;28;20605;-68
2022/07/02 12:47:34;;;;;;;1.50;1.08;;;30.90;43.20;;;;;;5031418;28;20724;-67
2022/07/02 12:50:15;;;;;;;1.33;1.23;;;30.80;44.80;;;;;;5031929;28;20174;-69
2022/07/02 12:52:53;;;;;;;2.10;1.02;;;30.70;45.10;;;;;;5031419;28;20212;-67
2022/07/02 12:55:23;;;;;;;1.27;1.17;;;30.60;43.40;;;;;;5031466;28;20174;-67
2022/07/02 12:57:49;;;;;;;2.58;1.10;;;30.30;44.90;;;;;;5030589;28;20200;-67
2022/07/02 13:00:15;;;;;;;1.95;1.58;;;30.30;45.10;;;;;;5031606;28;20648;-68